Terminal Aerodrome Forecast
Issued by NWS Atlanta, GA

Home | Current Version | Previous Version | Text Only | Print | Product List | Glossary On
Versions: 1 2 3 4 5 6 7 8 9 10 11 12 13 14 15 16 17 18 19 20 21 22 23 24 25 26 27 28 29 30 31 32 33 34 35 36 37 38 39 40
000
FTUS42 KFFC 281945 AAA
TAFATL
TAF AMD
KATL 281945Z 2820/2924 27012G20KT P6SM VCSH FEW040 BKN060
      TEMPO 2820/2823 VRB15G30KT 5SM SHRA BKN025
     FM290100 26007KT P6SM SCT050 BKN100
     FM290600 26006KT P6SM SCT250
     FM291500 28010KT P6SM SCT040 PROB30 2919/2923 6SM -TSRA
      BKN030CB=

USA.gov is the U.S. government's official web portal to all federal, state and local government web resources and services.